Time;durP1;ratioP1;P1;durP2;ratioP2;P2;SDS_P1;SDS_P2;PMS_P1;PMS_P2;Temp;Humidity;BMP_temperature;BMP_pressure;BME280_temperature;BME280_humidity;BME280_pressure;Samples;Min_cycle;Max_cycle;Signal;HPM_P1;HPM_P2
2021/11/12 00:13:27;;;;;;;44.72;28.50;;;;;;;6.94;97.20;102277.13;5074714;28;20161;-36
2021/11/12 00:15:56;;;;;;;55.28;33.30;;;;;;;7.01;97.21;102289.88;5075750;28;20040;-36
2021/11/12 00:18:25;;;;;;;52.38;31.10;;;;;;;6.88;96.76;102267.06;5074874;28;20024;-36
2021/11/12 00:20:51;;;;;;;43.70;29.08;;;;;;;6.95;97.11;102277.97;5074481;28;20020;-36
2021/11/12 00:23:19;;;;;;;45.53;30.42;;;;;;;6.91;96.95;102279.31;5074213;28;20377;-36
2021/11/12 00:25:47;;;;;;;56.17;32.80;;;;;;;6.95;96.82;102273.41;5074463;28;20029;-36
2021/11/12 00:28:16;;;;;;;50.55;32.45;;;;;;;6.78;97.77;102254.78;5074696;28;20036;-36
2021/11/12 00:36:13;;;;;;;51.17;32.33;;;;;;;6.74;96.83;102265.06;5074348;28;20041;-36
2021/11/12 00:38:51;;;;;;;56.25;32.40;;;;;;;6.64;96.94;102259.88;5074754;28;20024;-36
2021/11/12 00:47:06;;;;;;;48.15;30.90;;;;;;;6.59;98.36;102261.41;5031731;28;20037;-36
2021/11/12 00:49:36;;;;;;;52.55;32.40;;;;;;;6.45;97.65;102241.44;5030961;28;20034;-36
2021/11/12 00:52:14;;;;;;;50.63;31.73;;;;;;;6.42;97.63;102247.13;5031809;28;20041;-36
2021/11/12 00:54:40;;;;;;;48.20;31.70;;;;;;;6.39;97.22;102236.72;5032284;28;20045;-36
2021/11/12 00:57:05;;;;;;;50.70;32.27;;;;;;;6.35;97.65;102232.72;5031588;28;20441;-36
2021/11/12 00:59:31;;;;;;;53.67;32.30;;;;;;;6.40;98.32;102235.72;5032338;28;20431;-36
2021/11/12 01:01:58;;;;;;;50.50;29.67;;;;;;;6.27;97.21;102214.75;5031472;28;20036;-36
2021/11/12 01:04:23;;;;;;;52.45;32.08;;;;;;;6.30;97.64;102230.53;5031833;28;20056;-36
2021/11/12 01:06:50;;;;;;;54.78;31.88;;;;;;;6.28;96.94;102229.84;5031374;28;20033;-36
2021/11/12 01:09:19;;;;;;;53.83;32.95;;;;;;;6.24;97.50;102223.13;5031620;28;20034;-36
2021/11/12 01:11:47;;;;;;;53.80;32.88;;;;;;;6.13;96.72;102223.47;5031540;28;20151;-36
2021/11/12 01:14:16;;;;;;;54.95;30.55;;;;;;;6.10;97.00;102216.59;5031723;28;20029;-36
2021/11/12 01:16:43;;;;;;;49.83;30.33;;;;;;;6.04;97.38;102221.78;5031824;28;20069;-36
2021/11/12 01:19:10;;;;;;;54.05;31.02;;;;;;;6.00;97.89;102215.06;5031931;28;20052;-36
2021/11/12 01:21:37;;;;;;;55.67;32.78;;;;;;;6.00;97.82;102231.19;5031279;28;20029;-36
2021/11/12 01:24:03;;;;;;;50.97;32.95;;;;;;;5.90;97.57;102226.81;5058737;28;20036;-36
2021/11/12 01:26:29;;;;;;;51.92;30.50;;;;;;;5.88;97.11;102223.44;5073559;28;20359;-36
2021/11/12 01:28:55;;;;;;;58.83;33.00;;;;;;;5.81;97.72;102211.69;5073142;28;20036;-36
2021/11/12 01:31:28;;;;;;;48.97;30.48;;;;;;;5.86;97.19;102220.09;5073321;28;20028;-36
2021/11/12 01:34:00;;;;;;;49.30;30.90;;;;;;;5.77;97.32;102218.38;5073490;28;20032;-36
2021/11/12 01:36:31;;;;;;;53.80;32.72;;;;;;;5.72;97.01;102219.91;5073530;28;20071;-36
2021/11/12 01:39:01;;;;;;;54.30;32.75;;;;;;;5.65;96.98;102222.38;5071876;28;20028;-36
2021/11/12 01:41:27;;;;;;;48.20;30.67;;;;;;;5.65;97.60;102222.38;5072848;28;20074;-36
2021/11/12 01:43:53;;;;;;;;;;;;;;;5.76;96.90;102216.72;5074293;28;20036;-36
2021/11/12 01:46:33;;;;;;;53.53;31.67;;;;;;;5.62;97.17;102212.84;5072848;28;19908;-36
2021/11/12 01:49:11;;;;;;;55.03;32.13;;;;;;;5.64;97.84;102216.19;5073295;28;20403;-36
2021/11/12 01:51:42;;;;;;;50.85;32.80;;;;;;;5.57;96.96;102215.16;5073059;28;20178;-36
2021/11/12 01:56:58;;;;;;;58.10;33.78;;;;;;;5.51;97.93;102183.59;5073169;28;20050;-36
2021/11/12 01:59:23;;;;;;;52.13;31.17;;;;;;;5.55;97.44;102198.38;5073718;28;20032;-36
2021/11/12 02:01:56;;;;;;;50.00;32.33;;;;;;;5.54;97.45;102194.03;5072999;28;20475;-36
2021/11/12 02:04:26;;;;;;;52.20;31.95;;;;;;;5.54;98.28;102193.19;5072935;28;20029;-36
2021/11/12 02:06:52;;;;;;;56.45;34.38;;;;;;;5.38;98.26;102161.81;5073379;28;20036;-36
2021/11/12 02:09:19;;;;;;;54.58;32.03;;;;;;;5.54;98.91;102172.56;5073412;28;20029;-36
2021/11/12 02:11:50;;;;;;;51.70;31.05;;;;;;;5.57;98.81;102171.41;5072966;28;20080;-36
2021/11/12 02:14:17;;;;;;;52.75;32.58;;;;;;;5.56;98.50;102175.06;5073251;28;20108;-36
2021/11/12 02:17:09;;;;;;;47.75;30.42;;;;;;;5.55;98.92;102157.28;5072437;28;20032;-36
2021/11/12 02:19:36;;;;;;;51.58;31.77;;;;;;;5.55;98.30;102149.25;5073500;28;20052;-36
2021/11/12 02:22:10;;;;;;;50.50;30.00;;;;;;;5.53;98.40;102136.00;5072400;28;20492;-36
2021/11/12 02:24:39;;;;;;;50.00;30.48;;;;;;;5.48;97.24;102153.59;5072693;28;20479;-36
2021/11/12 02:27:06;;;;;;;53.05;33.33;;;;;;;5.45;97.93;102152.09;5072681;28;20119;-36
2021/11/12 02:29:33;;;;;;;53.20;32.42;;;;;;;5.36;98.24;102143.19;5072647;28;20503;-36
2021/11/12 02:31:58;;;;;;;49.35;31.52;;;;;;;5.52;98.45;102154.97;5073297;28;20027;-36
2021/11/12 02:34:24;;;;;;;53.17;32.03;;;;;;;5.36;98.18;102140.50;5073091;28;20029;-36
2021/11/12 02:36:49;;;;;;;57.70;32.88;;;;;;;5.48;98.25;102165.19;5072574;28;20044;-36
2021/11/12 02:39:15;;;;;;;51.00;31.57;;;;;;;5.31;98.57;102133.94;5073153;28;20024;-36
2021/11/12 02:41:41;;;;;;;41.22;25.33;;;;;;;5.59;98.72;102164.00;5072310;28;20024;-36
2021/11/12 02:44:08;;;;;;;45.90;29.30;;;;;;;5.60;98.83;102166.53;5073368;28;20038;-36
2021/11/12 02:46:34;;;;;;;47.38;29.55;;;;;;;5.51;99.26;102146.03;5073031;28;20345;-36
2021/11/12 02:49:00;;;;;;;49.72;29.95;;;;;;;5.66;99.06;102156.97;5072524;28;20028;-36
2021/11/12 02:51:30;;;;;;;56.65;32.75;;;;;;;5.54;99.46;102145.72;5072954;28;20104;-36
2021/11/12 02:54:00;;;;;;;55.17;32.75;;;;;;;5.59;99.43;102150.59;5072065;28;20036;-36
2021/11/12 02:56:29;;;;;;;55.70;31.83;;;;;;;5.64;99.27;102161.66;5072401;28;20024;-36
2021/11/12 02:59:06;;;;;;;46.13;29.92;;;;;;;5.64;98.81;102156.31;5072214;28;20503;-36
2021/11/12 03:01:36;;;;;;;52.13;31.83;;;;;;;5.66;99.15;102151.59;5072355;28;20021;-36
2021/11/12 03:04:02;;;;;;;55.75;33.58;;;;;;;5.63;99.38;102144.72;5072783;28;20028;-36
2021/11/12 03:06:27;;;;;;;;;;;;;;;5.73;99.01;102141.88;5072800;28;20029;-36
2021/11/12 03:08:57;;;;;;;50.78;30.38;;;;;;;5.66;99.26;102138.19;5072357;28;20326;-36
2021/11/12 03:11:23;;;;;;;60.40;32.03;;;;;;;5.60;98.73;102126.25;5073506;28;20049;-36
2021/11/12 03:13:49;;;;;;;46.13;29.60;;;;;;;5.51;98.44;102126.44;5074647;28;20491;-36
2021/11/12 03:16:15;;;;;;;;;;;;;;;5.67;98.08;102129.13;5076219;28;20032;-36
2021/11/12 03:18:41;;;;;;;48.00;30.55;;;;;;;5.42;98.02;102123.75;5075568;28;20463;-36
2021/11/12 03:21:09;;;;;;;50.70;31.45;;;;;;;5.48;98.42;102134.81;5076431;28;20033;-36
2021/11/12 03:23:39;;;;;;;49.55;32.13;;;;;;;5.38;98.04;102110.84;5075939;28;20388;-36
2021/11/12 03:59:43;;;;;;;50.45;31.50;;;;;;;4.76;97.84;102095.09;5033403;28;20080;-36
2021/11/12 04:02:10;;;;;;;49.95;31.08;;;;;;;4.61;97.50;102088.69;5033182;28;20040;-36
2021/11/12 04:04:42;;;;;;;50.63;30.63;;;;;;;4.56;98.09;102093.69;5033053;28;20033;-36
2021/11/12 04:20:33;;;;;;;47.90;30.53;;;;;;;4.45;97.09;102069.88;5074943;28;20032;-36
2021/11/12 05:09:41;;;;;;;51.72;31.83;;;;;;;3.73;96.58;102007.75;5074042;28;20071;-36
2021/11/12 05:34:11;;;;;;;51.03;30.80;;;;;;;3.22;97.25;101950.56;5031570;28;20123;-36
2021/11/12 05:44:37;;;;;;;63.45;34.38;;;;;;;3.20;98.04;101947.19;5037079;28;20040;-35
2021/11/12 05:50:11;;;;;;;62.15;34.58;;;;;;;3.14;98.03;101937.16;5030762;28;20037;-35
2021/11/12 05:55:20;;;;;;;60.03;34.50;;;;;;;3.15;98.84;101942.31;5031450;28;20512;-36
2021/11/12 05:57:45;;;;;;;59.17;33.53;;;;;;;3.08;98.37;101939.44;5031168;28;20037;-36
2021/11/12 06:00:14;;;;;;;62.73;34.77;;;;;;;2.90;98.52;101919.09;5030960;28;20114;-36
2021/11/12 06:02:40;;;;;;;64.10;34.38;;;;;;;3.10;98.58;101953.47;5030577;28;20095;-36
2021/11/12 06:05:06;;;;;;;60.03;34.95;;;;;;;3.12;98.77;101955.97;5030667;28;20045;-36
2021/11/12 06:07:31;;;;;;;55.38;32.47;;;;;;;3.22;98.83;101943.41;5030656;28;20033;-36
2021/11/12 06:09:57;;;;;;;62.97;34.50;;;;;;;3.14;98.62;101931.81;5030677;28;20101;-36
2021/11/12 06:12:26;;;;;;;52.77;32.60;;;;;;;3.17;98.80;101926.97;5030583;28;20057;-36
2021/11/12 06:14:51;;;;;;;67.43;36.20;;;;;;;3.03;99.10;101924.88;5031268;28;20041;-36
2021/11/12 06:17:17;;;;;;;56.33;33.10;;;;;;;2.92;99.02;101901.03;5030647;28;20041;-35
2021/11/12 06:19:42;;;;;;;57.20;32.27;;;;;;;3.14;99.27;101935.31;5031329;28;20500;-36
2021/11/12 06:22:07;;;;;;;51.63;31.67;;;;;;;3.12;99.61;101939.94;5031154;28;20228;-36
2021/11/12 06:24:33;;;;;;;52.20;30.33;;;;;;;3.04;99.59;101931.88;5030758;28;20072;-36
2021/11/12 06:26:58;;;;;;;53.92;31.55;;;;;;;3.06;99.96;101946.75;5056645;28;20403;-36
2021/11/12 06:29:24;;;;;;;58.97;31.67;;;;;;;3.08;99.79;101954.66;5072882;28;20025;-35
2021/11/12 06:31:49;;;;;;;54.13;31.07;;;;;;;2.95;99.08;101935.47;5072502;28;20123;-36
2021/11/12 06:34:15;;;;;;;55.93;31.60;;;;;;;3.07;99.18;101963.63;5072894;28;20483;-36
2021/11/12 06:36:41;;;;;;;52.90;31.10;;;;;;;3.10;99.35;101969.50;5072632;28;20271;-36
2021/11/12 06:39:08;;;;;;;50.38;31.35;;;;;;;2.97;99.28;101952.19;5073017;28;20388;-36
2021/11/12 06:49:57;;;;;;;53.25;31.85;;;;;;;3.16;99.94;101968.06;5076319;28;20501;-36
2021/11/12 06:52:21;;;;;;;54.40;31.55;;;;;;;3.09;99.59;101946.47;5076564;28;20420;-36
2021/11/12 06:54:47;;;;;;;55.47;31.65;;;;;;;3.24;99.83;101948.56;5075878;28;20417;-36
2021/11/12 06:57:14;;;;;;;51.20;30.20;;;;;;;3.25;100.00;101948.41;5076093;28;20099;-36
2021/11/12 06:59:39;;;;;;;53.53;29.75;;;;;;;3.23;100.00;101942.41;5076418;28;20056;-36
2021/11/12 07:02:06;;;;;;;46.80;30.23;;;;;;;3.21;99.58;101939.03;5076258;28;20138;-36
2021/11/12 07:04:32;;;;;;;48.05;29.80;;;;;;;3.07;99.21;101929.75;5076171;28;20058;-36
2021/11/12 07:06:58;;;;;;;48.33;30.05;;;;;;;3.13;99.37;101936.31;5075768;28;20033;-36
2021/11/12 07:09:23;;;;;;;51.05;29.92;;;;;;;3.04;99.51;101915.84;5076064;28;20035;-36
2021/11/12 07:11:49;;;;;;;48.93;30.10;;;;;;;3.04;99.18;101911.34;5074788;28;20052;-36
2021/11/12 07:14:15;;;;;;;48.23;29.70;;;;;;;3.13;99.86;101928.28;5076955;28;20021;-36
2021/11/12 07:16:40;;;;;;;50.20;29.42;;;;;;;3.04;99.29;101926.53;5075662;28;20107;-36
2021/11/12 07:19:06;;;;;;;46.55;28.85;;;;;;;2.97;98.57;101914.78;5075849;28;20032;-36
2021/11/12 07:21:31;;;;;;;42.75;28.02;;;;;;;2.93;98.98;101914.28;5075801;28;20105;-35
2021/11/12 07:23:57;;;;;;;50.13;29.93;;;;;;;2.92;99.00;101923.25;5075845;28;20482;-36
2021/11/12 07:26:22;;;;;;;41.53;26.43;;;;;;;2.86;98.49;101929.22;5076290;28;20031;-36
2021/11/12 07:28:49;;;;;;;43.37;27.63;;;;;;;2.83;98.35;101937.53;5076427;28;20472;-36
2021/11/12 07:31:16;;;;;;;41.38;27.42;;;;;;;2.82;98.74;101928.69;5075608;28;20411;-36
2021/11/12 07:33:43;;;;;;;40.10;26.42;;;;;;;2.83;98.87;101917.03;5075226;28;20025;-36
2021/11/12 07:38:59;;;;;;;39.07;24.90;;;;;;;2.86;98.32;101913.19;5075292;28;20097;-36
2021/11/12 07:46:39;;;;;;;41.05;25.67;;;;;;;2.94;97.93;101901.75;5075657;28;20044;-36
2021/11/12 07:49:07;;;;;;;38.63;24.60;;;;;;;2.87;97.42;101879.31;5075838;28;20029;-36
2021/11/12 07:51:33;;;;;;;39.60;24.33;;;;;;;2.88;97.07;101884.50;5075539;28;20033;-36
2021/11/12 07:53:59;;;;;;;40.70;25.45;;;;;;;2.85;96.92;101874.13;5075063;28;20468;-36
2021/11/12 07:56:25;;;;;;;39.00;25.87;;;;;;;2.82;97.13;101885.94;5075085;28;20040;-36
2021/11/12 07:58:50;;;;;;;38.45;25.20;;;;;;;2.71;96.60;101872.00;5075900;28;20039;-36
2021/11/12 08:01:16;;;;;;;37.00;24.00;;;;;;;2.69;96.47;101876.69;5074931;28;20039;-35
2021/11/12 08:03:43;;;;;;;40.47;24.20;;;;;;;2.74;96.63;101893.91;5076070;28;20033;-36
2021/11/12 08:06:11;;;;;;;33.63;22.67;;;;;;;2.77;96.61;101901.59;5075118;28;20457;-36
2021/11/12 08:08:38;;;;;;;38.40;24.80;;;;;;;2.77;96.41;101887.41;5075038;28;20034;-36
2021/11/12 08:11:32;;;;;;;37.50;24.88;;;;;;;2.81;95.99;101889.63;5075240;28;20063;-35
2021/11/12 08:13:58;;;;;;;39.97;24.92;;;;;;;2.72;95.97;101876.34;5074737;28;20059;-35
2021/11/12 08:19:01;;;;;;;36.00;23.80;;;;;;;2.78;95.99;101863.22;5074894;28;20033;-35
2021/11/12 08:27:13;;;;;;;38.28;24.88;;;;;;;2.97;95.86;101896.91;5074435;28;20127;-36
2021/11/12 08:37:09;;;;;;;41.13;25.77;;;;;;;3.19;95.53;101884.88;5074991;28;20122;-36
2021/11/12 08:42:06;;;;;;;32.03;23.07;;;;;;;3.34;96.05;101859.25;5074639;28;20115;-36
2021/11/12 08:47:13;;;;;;;35.38;25.02;;;;;;;3.38;95.17;101857.09;5074572;28;20033;-36
2021/11/12 08:49:41;;;;;;;37.95;24.58;;;;;;;3.49;95.67;101847.97;5074738;28;20032;-36
2021/11/12 08:52:08;;;;;;;35.72;25.77;;;;;;;3.43;95.63;101840.59;5073799;28;20392;-35
2021/11/12 08:54:36;;;;;;;36.10;23.45;;;;;;;3.56;94.32;101849.84;5074827;28;20449;-36
2021/11/12 08:57:07;;;;;;;39.08;22.95;;;;;;;3.56;94.55;101851.66;5073756;28;20416;-36
2021/11/12 08:59:33;;;;;;;37.63;25.00;;;;;;;3.64;94.05;101853.53;5074156;28;20111;-36
2021/11/12 09:01:59;;;;;;;34.95;24.13;;;;;;;3.56;94.25;101807.06;5073702;28;20504;-36
2021/11/12 09:04:25;;;;;;;;;;;;;;;3.92;94.48;101830.91;5074388;28;20060;-36
2021/11/12 09:06:51;;;;;;;32.17;22.27;;;;;;;3.88;94.45;101814.31;5073642;28;19954;-36
2021/11/12 09:09:16;;;;;;;36.83;24.90;;;;;;;3.86;93.61;101802.13;5073890;28;20402;-36
2021/11/12 09:11:42;;;;;;;34.93;24.47;;;;;;;3.79;94.06;101775.16;5056125;28;20097;-36
2021/11/12 09:14:12;;;;;;;34.33;24.75;;;;;;;3.96;93.80;101794.78;5074011;28;20370;-36
2021/11/12 09:16:43;;;;;;;38.10;24.75;;;;;;;4.07;93.29;101821.22;5074137;28;20082;-36
2021/11/12 09:19:08;;;;;;;37.38;24.77;;;;;;;4.16;93.94;101810.53;5073842;28;20544;-36
2021/11/12 09:21:34;;;;;;;38.77;23.97;;;;;;;4.21;93.72;101808.22;5073312;28;20112;-36
2021/11/12 09:24:00;;;;;;;37.03;25.42;;;;;;;4.24;92.47;101797.97;5073706;28;20324;-36
2021/11/12 09:26:26;;;;;;;39.97;25.25;;;;;;;4.33;92.58;101793.47;5073661;28;20040;-36
2021/11/12 09:28:52;;;;;;;37.63;24.58;;;;;;;4.23;93.13;101764.19;5074372;28;20028;-36
2021/11/12 09:31:19;;;;;;;38.08;25.38;;;;;;;4.44;92.19;101803.00;5073573;28;20052;-36
2021/11/12 09:33:44;;;;;;;36.97;24.73;;;;;;;4.46;92.77;101776.91;5073761;28;20024;-36
2021/11/12 09:36:11;;;;;;;36.65;24.80;;;;;;;4.38;91.85;101753.63;5073929;28;20078;-36
2021/11/12 09:38:40;;;;;;;;;;;;;;;4.74;93.18;101772.03;5074189;28;20031;-36
2021/11/12 09:41:08;;;;;;;38.30;24.63;;;;;;;4.82;92.43;101786.25;5073363;28;20298;-36
2021/11/12 09:43:35;;;;;;;35.28;24.27;;;;;;;4.94;91.44;101783.22;5073130;28;20032;-36
2021/11/12 09:46:02;;;;;;;37.20;24.63;;;;;;;5.03;91.57;101790.25;5073203;28;20020;-36
2021/11/12 09:48:27;;;;;;;40.65;26.20;;;;;;;5.10;90.09;101797.41;5073322;28;20060;-36
2021/11/12 09:50:53;;;;;;;34.63;24.37;;;;;;;5.25;90.53;101794.84;5072924;28;20027;-36
2021/11/12 09:53:19;;;;;;;38.65;26.00;;;;;;;5.32;90.04;101803.03;5072903;28;20350;-36
2021/11/12 09:55:47;;;;;;;35.92;24.45;;;;;;;5.42;89.50;101801.00;5073042;28;20036;-36
2021/11/12 09:58:14;;;;;;;37.65;24.67;;;;;;;5.50;89.58;101786.72;5072912;28;20064;-36
2021/11/12 10:00:40;;;;;;;37.50;24.30;;;;;;;5.59;88.89;101788.34;5073042;28;20032;-36
2021/11/12 10:03:08;;;;;;;41.42;24.27;;;;;;;5.61;87.17;101780.94;5073336;28;20032;-36
2021/11/12 10:05:47;;;;;;;35.45;24.65;;;;;;;5.67;87.95;101772.22;5073401;28;20449;-36
2021/11/12 10:08:26;;;;;;;36.53;24.80;;;;;;;5.78;88.16;101771.81;5073036;28;20020;-36
2021/11/12 10:11:04;;;;;;;37.53;24.58;;;;;;;5.84;86.93;101755.00;5073927;28;20024;-36
2021/11/12 10:13:42;;;;;;;33.60;24.00;;;;;;;5.81;87.40;101744.63;5073284;28;20059;-36
2021/11/12 10:19:07;;;;;;;31.38;23.23;;;;;;;5.98;87.05;101749.91;5073573;28;20041;-37
2021/11/12 10:21:54;;;;;;;37.10;24.77;;;;;;;6.10;86.95;101753.81;5074195;28;20070;-36
2021/11/12 10:24:30;;;;;;;35.45;23.02;;;;;;;6.21;85.95;101742.69;5077998;28;20465;-36
2021/11/12 10:27:08;;;;;;;33.58;23.77;;;;;;;6.27;85.44;101727.69;5077097;28;20025;-35
2021/11/12 10:29:40;;;;;;;34.53;23.48;;;;;;;6.25;84.71;101714.44;5077060;28;20021;-36
2021/11/12 10:32:08;;;;;;;29.83;22.67;;;;;;;6.30;84.84;101706.69;5077242;28;20067;-36
2021/11/12 10:34:40;;;;;;;33.20;23.48;;;;;;;6.39;84.08;101708.28;5076511;28;20166;-36
2021/11/12 10:37:12;;;;;;;32.35;21.45;;;;;;;6.51;84.85;101702.47;5076941;28;20036;-35
2021/11/12 10:39:38;;;;;;;30.63;22.33;;;;;;;6.56;83.43;101706.25;5077145;28;20024;-36
2021/11/12 10:42:26;;;;;;;29.00;21.10;;;;;;;6.68;84.58;101703.94;5077390;28;20471;-36
2021/11/12 10:44:54;;;;;;;30.40;21.52;;;;;;;6.70;83.21;101689.31;5077234;28;20362;-36
2021/11/12 10:47:21;;;;;;;32.42;21.50;;;;;;;6.84;82.52;101694.88;5076324;28;20024;-36
2021/11/12 10:49:49;;;;;;;32.60;21.95;;;;;;;6.95;84.05;101676.41;5076350;28;20040;-36
2021/11/12 10:52:17;;;;;;;28.45;20.40;;;;;;;6.85;80.86;101664.28;5076478;28;20021;-36
2021/11/12 10:57:18;;;;;;;29.15;20.98;;;;;;;7.14;81.49;101680.38;5076243;28;20033;-36
2021/11/12 10:59:52;;;;;;;31.45;20.45;;;;;;;7.17;80.83;101685.41;5076474;28;20429;-36
2021/11/12 11:02:47;;;;;;;29.60;21.30;;;;;;;7.18;81.40;101667.41;5076371;28;20030;-36
2021/11/12 11:05:17;;;;;;;31.02;20.92;;;;;;;7.23;80.39;101676.56;5076837;28;20426;-36
2021/11/12 11:07:48;;;;;;;30.67;21.20;;;;;;;7.25;80.58;101680.91;5076092;28;20033;-36
2021/11/12 11:10:33;;;;;;;28.30;21.00;;;;;;;7.21;81.22;101673.22;5076403;28;20452;-36
2021/11/12 11:13:01;;;;;;;28.98;20.63;;;;;;;7.14;79.68;101660.72;5076639;28;20048;-35
2021/11/12 11:15:33;;;;;;;30.45;20.65;;;;;;;7.25;80.39;101673.69;5076358;28;20031;-36
2021/11/12 11:18:21;;;;;;;28.55;19.77;;;;;;;7.35;79.27;101668.81;5076341;28;20178;-36
2021/11/12 11:20:51;;;;;;;27.98;20.33;;;;;;;7.38;78.21;101663.09;5076360;28;20029;-36
2021/11/12 11:23:17;;;;;;;29.02;20.50;;;;;;;7.46;79.41;101660.25;5075696;28;20123;-36
2021/11/12 11:25:53;;;;;;;29.40;19.58;;;;;;;7.59;79.27;101664.97;5076280;28;20067;-36
2021/11/12 11:28:19;;;;;;;25.65;19.42;;;;;;;7.60;77.46;101638.88;5076475;28;20035;-36
2021/11/12 11:30:45;;;;;;;28.00;21.13;;;;;;;7.69;77.80;101648.50;5076385;28;20448;-36
2021/11/12 11:33:11;;;;;;;;;;;;;;;7.86;80.28;101641.81;5076314;28;20025;-36
2021/11/12 11:35:36;;;;;;;25.88;19.08;;;;;;;7.96;79.08;101628.03;5075876;28;19916;-36
2021/11/12 11:38:02;;;;;;;27.13;18.50;;;;;;;7.91;77.36;101604.38;5076362;28;20029;-36
2021/11/12 11:40:29;;;;;;;30.65;19.48;;;;;;;8.00;78.41;101621.19;5076387;28;20325;-36
2021/11/12 11:42:54;;;;;;;28.70;19.67;;;;;;;8.06;78.89;101617.75;5076472;28;20093;-36
2021/11/12 11:45:20;;;;;;;26.37;19.97;;;;;;;8.00;77.82;101613.13;5075632;28;20032;-36
2021/11/12 11:47:46;;;;;;;30.40;20.67;;;;;;;8.07;78.31;101613.19;5075331;28;20380;-36
2021/11/12 11:50:29;;;;;;;29.20;20.92;;;;;;;8.11;80.11;101609.91;5076099;28;20366;-36
2021/11/12 11:53:25;;;;;;;27.15;19.02;;;;;;;8.14;77.91;101616.75;5075471;28;20028;-36
2021/11/12 11:55:52;;;;;;;27.27;19.98;;;;;;;8.07;79.33;101588.94;5075616;28;20130;-36
2021/11/12 11:58:43;;;;;;;28.30;19.98;;;;;;;8.23;79.54;101592.16;5075067;28;20035;-36
2021/11/12 12:01:18;;;;;;;29.27;21.67;;;;;;;8.27;78.59;101592.59;5053038;28;20079;-36
2021/11/12 12:03:45;;;;;;;29.77;21.73;;;;;;;8.29;77.06;101587.84;5053184;28;20148;-36
2021/11/12 12:06:20;;;;;;;29.00;20.17;;;;;;;8.24;76.92;101571.44;5052888;28;20436;-36
2021/11/12 12:09:05;;;;;;;27.48;20.38;;;;;;;8.40;79.32;101576.56;5052744;28;20064;-36
2021/11/12 12:11:30;;;;;;;28.52;21.20;;;;;;;8.35;76.70;101573.59;5053040;28;20045;-36
2021/11/12 12:14:32;;;;;;;27.60;20.50;;;;;;;8.42;78.56;101568.25;5053333;28;20048;-36
2021/11/12 12:17:02;;;;;;;29.75;20.52;;;;;;;8.34;77.44;101544.13;5053450;28;20350;-36
2021/11/12 12:20:01;;;;;;;30.20;21.90;;;;;;;8.38;78.23;101548.13;5053074;28;20037;-36
2021/11/12 13:22:41;;;;;;;37.80;24.25;;;;;;;8.10;84.48;101489.72;5073859;28;20036;-36
2021/11/12 13:25:10;;;;;;;35.58;25.80;;;;;;;7.98;83.69;101473.28;5074262;28;20025;-36
2021/11/12 13:27:36;;;;;;;30.58;24.65;;;;;;;8.03;84.36;101479.94;5073591;28;20384;-36
2021/11/12 13:30:04;;;;;;;37.25;25.80;;;;;;;8.00;83.76;101468.53;5073716;28;20092;-36
2021/11/12 13:32:36;;;;;;;34.90;24.95;;;;;;;8.01;84.58;101461.28;5073301;28;20099;-36
2021/11/12 13:35:01;;;;;;;32.42;24.27;;;;;;;7.91;84.95;101453.56;5073546;28;20028;-36
2021/11/12 13:37:27;;;;;;;32.97;23.63;;;;;;;7.97;84.95;101441.16;5073567;28;20017;-36
2021/11/12 13:40:00;;;;;;;;;;;;;;;8.07;85.42;101456.97;5074260;28;20059;-36
2021/11/12 13:42:26;;;;;;;32.58;24.27;;;;;;;7.97;84.95;101447.38;5073206;28;19918;-36
2021/11/12 13:44:52;;;;;;;33.22;24.38;;;;;;;7.94;86.29;101442.38;5073777;28;20461;-36
2021/11/12 13:47:21;;;;;;;35.33;25.42;;;;;;;7.88;85.70;101424.34;5074332;28;20487;-36
2021/11/12 13:49:53;;;;;;;38.08;25.73;;;;;;;7.84;86.33;101420.38;5072359;28;20037;-36
2021/11/12 13:52:28;;;;;;;34.72;26.58;;;;;;;7.85;86.32;101411.25;5073115;28;20380;-36
2021/11/12 13:55:04;;;;;;;36.90;25.58;;;;;;;7.95;86.29;101427.91;5073293;28;20400;-36
2021/11/12 13:57:30;;;;;;;40.90;25.90;;;;;;;7.98;86.31;101429.34;5073330;28;20027;-36
2021/11/12 14:00:05;;;;;;;37.20;25.60;;;;;;;8.02;85.74;101429.78;5073587;28;20559;-36
2021/11/12 14:02:51;;;;;;;33.55;24.25;;;;;;;8.01;85.71;101434.34;5073172;28;20100;-36
2021/11/12 14:05:16;;;;;;;37.38;24.27;;;;;;;8.02;86.74;101421.72;5074053;28;20037;-36
2021/11/12 14:07:44;;;;;;;34.27;23.97;;;;;;;7.99;86.96;101420.22;5073299;28;20105;-36
2021/11/12 14:10:13;;;;;;;33.55;25.35;;;;;;;7.90;86.37;101391.81;5072862;28;20033;-36
2021/11/12 14:12:58;;;;;;;33.67;24.52;;;;;;;7.97;87.15;101403.47;5073369;28;20052;-36
2021/11/12 14:15:30;;;;;;;33.45;24.73;;;;;;;7.91;85.91;101386.25;5072872;28;20473;-37
2021/11/12 14:18:12;;;;;;;31.33;23.52;;;;;;;7.96;86.52;101396.41;5072857;28;20025;-36
2021/11/12 14:20:41;;;;;;;28.55;21.33;;;;;;;7.96;86.03;101386.47;5072857;28;20108;-36
2021/11/12 14:23:33;;;;;;;29.50;22.05;;;;;;;7.93;86.54;101392.25;5073015;28;20391;-36
2021/11/12 14:29:18;;;;;;;29.38;22.33;;;;;;;7.94;87.55;101374.22;5073124;28;20040;-36
2021/11/12 14:31:49;;;;;;;31.13;23.30;;;;;;;7.90;87.56;101381.03;5067202;28;20452;-36
2021/11/12 14:34:38;;;;;;;31.90;22.60;;;;;;;7.87;87.85;101382.28;5072842;28;20107;-36
2021/11/12 14:37:15;;;;;;;31.05;23.98;;;;;;;7.84;88.21;101371.06;5073150;28;20412;-36
2021/11/12 14:40:04;;;;;;;30.88;23.20;;;;;;;7.82;88.30;101375.84;5073324;28;20033;-36
2021/11/12 14:45:33;;;;;;;30.63;23.17;;;;;;;7.79;88.09;101358.22;5030636;28;20046;-36
2021/11/12 14:48:34;;;;;;;30.17;22.02;;;;;;;7.79;87.70;101368.16;5030269;28;20079;-36
2021/11/12 14:56:13;;;;;;;32.70;23.40;;;;;;;7.73;88.34;101376.00;5030621;28;20034;-36
2021/11/12 14:58:45;;;;;;;31.05;22.60;;;;;;;7.71;88.26;101375.38;5031059;28;20046;-36
2021/11/12 15:01:16;;;;;;;31.83;23.23;;;;;;;7.63;88.51;101353.16;5030545;28;20044;-36
2021/11/12 15:03:43;;;;;;;32.05;24.45;;;;;;;7.69;88.45;101363.13;5030614;28;20034;-36
2021/11/12 15:06:10;;;;;;;32.58;23.38;;;;;;;7.67;88.88;101352.56;5030852;28;20036;-36
2021/11/12 15:08:43;;;;;;;33.20;24.08;;;;;;;7.59;89.36;101330.38;5033431;28;20045;-36
2021/11/12 15:11:10;;;;;;;30.05;21.48;;;;;;;7.65;88.10;101337.63;5034004;28;20033;-36
2021/11/12 15:13:37;;;;;;;31.27;22.40;;;;;;;7.62;88.96;101341.56;5034667;28;20041;-36
2021/11/12 15:16:09;;;;;;;33.50;22.40;;;;;;;7.60;89.03;101337.41;5034162;28;20029;-36
2021/11/12 15:18:35;;;;;;;36.97;22.15;;;;;;;7.45;89.83;101306.06;5034483;28;20029;-36
2021/11/12 15:21:04;;;;;;;31.77;22.23;;;;;;;7.57;88.97;101327.06;5054686;28;20058;-36
2021/11/12 15:23:43;;;;;;;29.08;21.88;;;;;;;7.53;89.15;101315.84;5076303;28;20472;-36
2021/11/12 15:33:34;;;;;;;34.97;23.10;;;;;;;7.37;89.88;101287.41;5075934;28;20067;-36
2021/11/12 15:36:04;;;;;;;33.33;22.53;;;;;;;7.37;89.71;101291.94;5075445;28;20036;-36
2021/11/12 15:41:00;;;;;;;30.70;23.03;;;;;;;7.33;89.94;101283.47;5075836;28;20043;-36
2021/11/12 15:43:41;;;;;;;31.00;23.45;;;;;;;7.29;90.34;101284.06;5075446;28;20024;-36
2021/11/12 15:46:11;;;;;;;32.35;22.70;;;;;;;7.20;90.98;101269.94;5075929;28;20085;-36
2021/11/12 15:48:39;;;;;;;29.80;23.25;;;;;;;7.17;90.48;101283.75;5075870;28;20396;-36
2021/11/12 15:51:31;;;;;;;30.77;23.80;;;;;;;7.13;90.61;101274.44;5075998;28;20401;-36
2021/11/12 15:58:56;;;;;;;33.92;23.33;;;;;;;6.99;91.27;101275.41;5075384;28;20040;-36
2021/11/12 16:08:59;;;;;;;32.27;23.70;;;;;;;6.97;91.28;101280.94;5075796;28;20055;-36
2021/11/12 16:27:02;;;;;;;34.55;24.55;;;;;;;6.70;92.02;101218.94;5075137;28;20442;-36
2021/11/12 16:31:53;;;;;;;32.50;23.80;;;;;;;6.88;91.98;101245.34;5074769;28;20037;-36
2021/11/12 16:34:21;;;;;;;32.87;23.37;;;;;;;6.85;91.80;101251.09;5074376;28;20035;-36
2021/11/12 16:37:00;;;;;;;32.17;23.27;;;;;;;6.86;91.64;101263.50;5074229;28;20025;-36
2021/11/12 16:39:31;;;;;;;29.95;23.15;;;;;;;6.84;92.73;101259.38;5075033;28;20036;-36
2021/11/12 16:47:37;;;;;;;33.92;23.05;;;;;;;6.88;92.14;101264.16;5072219;28;20064;-36